createdAt,value
2019-04-06T00:02:38.623Z,100769.14
2019-04-06T00:05:10.866Z,100766.16
2019-04-06T00:07:42.244Z,100766.11
2019-04-06T00:10:13.887Z,100764.34
2019-04-06T00:12:45.444Z,100766.95
2019-04-06T00:15:17.138Z,100766.95
2019-04-06T00:17:48.655Z,100766.58
2019-04-06T00:20:20.437Z,100768.75
2019-04-06T00:22:51.906Z,100763.55
2019-04-06T00:25:23.913Z,100768.01
2019-04-06T00:27:55.682Z,100771.92
2019-04-06T00:30:29.566Z,100771.09
2019-04-06T00:33:03.132Z,100765.79
2019-04-06T00:35:36.092Z,100767.97
2019-04-06T00:38:08.191Z,100771.12
2019-04-06T00:40:39.771Z,100768.47
2019-04-06T00:43:11.886Z,100774.62
2019-04-06T00:45:43.617Z,100768.97
2019-04-06T00:48:15.156Z,100771.63
2019-04-06T00:50:46.925Z,100767.70
2019-04-06T00:53:18.738Z,100768.16
2019-04-06T00:55:55.467Z,100772.54
2019-04-06T00:58:23.626Z,100777.28
2019-04-06T01:00:55.924Z,100773.34
2019-04-06T01:03:27.396Z,100773.84
2019-04-06T01:05:59.016Z,100774.27
2019-04-06T01:08:30.498Z,100776.03
2019-04-06T01:11:02.123Z,100778.22
2019-04-06T01:13:33.602Z,100785.25
2019-04-06T01:16:05.261Z,100785.32
2019-04-06T01:18:36.772Z,100794.09
2019-04-06T01:21:08.341Z,100787.05
2019-04-06T01:23:40.019Z,100786.64
2019-04-06T01:26:11.674Z,100793.67
2019-04-06T01:28:45.331Z,100787.16
2019-04-06T01:31:17.397Z,100790.70
2019-04-06T01:33:49.049Z,100788.46
2019-04-06T01:36:20.607Z,100793.74
2019-04-06T01:38:52.240Z,100796.38
2019-04-06T01:41:24.417Z,100792.44
2019-04-06T01:43:56.599Z,100795.92
2019-04-06T01:46:28.694Z,100798.98
2019-04-06T01:49:00.332Z,100798.56
2019-04-06T01:51:32.104Z,100792.44
2019-04-06T01:54:03.876Z,100797.72
2019-04-06T01:56:35.961Z,100793.33
2019-04-06T01:59:07.636Z,100795.07
2019-04-06T02:01:57.481Z,100800.33
2019-04-06T02:04:29.092Z,100795.03
2019-04-06T02:07:00.853Z,100792.45
2019-04-06T02:09:32.479Z,100794.19
2019-04-06T02:12:04.416Z,100799.46
2019-04-06T02:14:36.477Z,100796.84
2019-04-06T02:17:08.256Z,100792.88
2019-04-06T02:19:39.981Z,100800.33
2019-04-06T02:22:11.841Z,100809.98
2019-04-06T02:24:43.622Z,100804.72
2019-04-06T02:27:15.245Z,100809.10
2019-04-06T02:29:49.138Z,100806.92
2019-04-06T02:32:22.279Z,100818.76
2019-04-06T02:34:55.832Z,100819.20
2019-04-06T02:37:29.323Z,100809.98
2019-04-06T02:40:14.718Z,100818.33
2019-04-06T02:42:48.198Z,100817.45
2019-04-06T02:45:20.242Z,100819.63
2019-04-06T02:47:51.755Z,100815.69
2019-04-06T02:50:23.525Z,100816.97
2019-04-06T02:52:55.129Z,100817.88
2019-04-06T02:55:26.596Z,100816.09
2019-04-06T02:57:58.324Z,100810.83
2019-04-06T03:00:29.937Z,100812.58
2019-04-06T03:03:01.555Z,100809.52
2019-04-06T03:05:33.239Z,100813.88
2019-04-06T03:08:04.750Z,100811.70
2019-04-06T03:10:36.434Z,100816.06
2019-04-06T03:13:07.915Z,100813.44
2019-04-06T03:15:39.791Z,100810.36
2019-04-06T03:18:11.351Z,100815.12
2019-04-06T03:20:42.985Z,100816.92
2019-04-06T03:23:14.669Z,100815.14
2019-04-06T03:25:46.278Z,100817.34
2019-04-06T03:28:17.878Z,100816.92
2019-04-06T03:30:49.340Z,100814.67
2019-04-06T03:33:21.295Z,100817.77
2019-04-06T03:35:53.283Z,100813.34
2019-04-06T03:38:24.899Z,100821.25
2019-04-06T03:40:56.844Z,100819.02
2019-04-06T03:43:28.321Z,100820.75
2019-04-06T03:46:00.002Z,100820.28
2019-04-06T03:48:31.976Z,100821.18
2019-04-06T03:51:03.859Z,100825.93
2019-04-06T03:53:35.601Z,100821.14
2019-04-06T03:56:07.205Z,100825.98
2019-04-06T03:58:39.041Z,100828.09
2019-04-06T04:01:10.618Z,100832.09
2019-04-06T04:03:42.508Z,100826.38
2019-04-06T04:06:13.923Z,100832.52
2019-04-06T04:08:45.756Z,100831.15
2019-04-06T04:11:17.609Z,100826.39
2019-04-06T04:13:49.328Z,100826.41
2019-04-06T04:16:21.240Z,100832.91
2019-04-06T04:18:53.147Z,100829.81
2019-04-06T04:21:24.923Z,100834.20
2019-04-06T04:23:57.763Z,100836.76
2019-04-06T04:26:29.267Z,100841.64
2019-04-06T04:29:00.730Z,100839.38
2019-04-06T04:31:32.283Z,100846.25
2019-04-06T04:34:03.936Z,100841.97
2019-04-06T04:36:36.389Z,100849.44
2019-04-06T04:39:09.079Z,100851.18
2019-04-06T04:41:40.773Z,100854.30
2019-04-06T04:44:12.485Z,100852.98
2019-04-06T04:46:44.007Z,100857.41
2019-04-06T04:49:15.525Z,100856.95
2019-04-06T04:51:47.308Z,100862.23
2019-04-06T04:54:19.284Z,100851.28
2019-04-06T04:56:51.019Z,100857.86
2019-04-06T04:59:22.597Z,100865.76
2019-04-06T05:01:54.286Z,100856.60
2019-04-06T05:04:25.901Z,100861.00
2019-04-06T05:06:57.323Z,100862.73
2019-04-06T05:09:28.960Z,100863.69
2019-04-06T05:12:00.910Z,100866.77
2019-04-06T05:15:09.778Z,100865.88
2019-04-06T05:17:41.299Z,100876.43
2019-04-06T05:20:13.598Z,100869.91
2019-04-06T05:22:45.254Z,100874.36
2019-04-06T05:25:16.802Z,100871.30
2019-04-06T05:27:52.579Z,100873.36
2019-04-06T05:30:21.659Z,100872.22
2019-04-06T05:32:53.717Z,100863.42
2019-04-06T05:35:25.467Z,100871.92
2019-04-06T05:37:56.998Z,100874.85
2019-04-06T05:40:28.530Z,100876.18
2019-04-06T05:43:00.137Z,100873.34
2019-04-06T05:45:32.261Z,100874.28
2019-04-06T05:48:04.084Z,100875.61
2019-04-06T05:50:35.563Z,100876.11
2019-04-06T05:53:07.166Z,100878.73
2019-04-06T05:55:39.040Z,100876.53
2019-04-06T05:58:10.621Z,100877.81
2019-04-06T06:00:41.648Z,100878.25
2019-04-06T06:03:12.153Z,100879.59
2019-04-06T06:05:42.434Z,100876.47
2019-04-06T06:08:12.625Z,100878.16
2019-04-06T06:10:42.899Z,100873.77
2019-04-06T06:13:13.357Z,100882.11
2019-04-06T06:15:43.567Z,100879.38
2019-04-06T06:18:17.515Z,100880.13
2019-04-06T06:20:48.149Z,100878.94
2019-04-06T06:23:17.920Z,100878.48
2019-04-06T06:25:48.470Z,100881.05
2019-04-06T06:28:18.756Z,100882.58
2019-04-06T06:30:49.453Z,100877.25
2019-04-06T06:33:19.622Z,100881.77
2019-04-06T06:35:49.907Z,100882.23
2019-04-06T06:38:21.483Z,100879.89
2019-04-06T06:40:52.042Z,100886.38
2019-04-06T06:43:22.607Z,100880.01
2019-04-06T06:45:52.982Z,100869.87
2019-04-06T06:48:23.363Z,100874.05
2019-04-06T06:50:53.762Z,100876.66
2019-04-06T06:53:24.226Z,100872.77
2019-04-06T06:55:54.818Z,100863.37
2019-04-06T06:58:26.156Z,100870.23
2019-04-06T07:00:56.571Z,100868.30
2019-04-06T07:03:27.269Z,100876.03
2019-04-06T07:05:57.874Z,100871.79
2019-04-06T07:08:28.081Z,100873.52
2019-04-06T07:10:58.960Z,100869.05
2019-04-06T07:13:29.523Z,100869.59
2019-04-06T07:15:59.901Z,100869.06
2019-04-06T07:18:30.609Z,100873.68
2019-04-06T07:21:01.800Z,100868.55
2019-04-06T07:23:32.226Z,100863.02
2019-04-06T07:26:02.913Z,100872.60
2019-04-06T07:28:38.084Z,100859.43
2019-04-06T07:31:05.411Z,100860.78
2019-04-06T07:33:36.315Z,100858.53
2019-04-06T07:36:06.676Z,100861.75
2019-04-06T07:38:38.305Z,100854.72
2019-04-06T07:41:09.431Z,100860.05
2019-04-06T07:43:39.551Z,100855.69
2019-04-06T07:46:09.714Z,100862.00
2019-04-06T07:48:40.027Z,100859.26
2019-04-06T07:51:10.887Z,100857.72
2019-04-06T07:53:42.228Z,100859.23
2019-04-06T07:56:12.692Z,100845.77
2019-04-06T07:58:49.455Z,100855.17
2019-04-06T08:01:15.472Z,100867.09
2019-04-06T08:03:46.022Z,100852.76
2019-04-06T08:06:16.349Z,100849.46
2019-04-06T08:08:46.840Z,100842.52
2019-04-06T08:11:17.573Z,100849.71
2019-04-06T08:13:48.205Z,100841.88
2019-04-06T08:16:19.476Z,100843.67
2019-04-06T08:18:49.665Z,100843.33
2019-04-06T08:21:20.366Z,100836.92
2019-04-06T08:23:50.855Z,100844.92
2019-04-06T08:26:21.135Z,100853.78
2019-04-06T08:29:00.195Z,100850.69
2019-04-06T08:31:25.167Z,100847.01
2019-04-06T08:33:55.400Z,100840.94
2019-04-06T08:36:26.048Z,100836.89
2019-04-06T08:38:56.536Z,100835.66
2019-04-06T08:41:27.081Z,100830.32
2019-04-06T08:43:57.423Z,100829.09
2019-04-06T08:46:27.497Z,100824.36
2019-04-06T08:48:57.957Z,100824.95
2019-04-06T08:51:28.077Z,100825.69
2019-04-06T08:53:58.522Z,100835.83
2019-04-06T08:56:29.409Z,100825.72
2019-04-06T08:59:10.490Z,100828.06
2019-04-06T09:01:32.233Z,100823.83
2019-04-06T09:04:02.534Z,100823.13
2019-04-06T09:06:33.084Z,100815.77
2019-04-06T09:09:05.513Z,100819.84
2019-04-06T09:11:36.511Z,100811.26
2019-04-06T09:14:06.968Z,100828.80
2019-04-06T09:16:37.396Z,100813.37
2019-04-06T09:19:07.924Z,100818.06
2019-04-06T09:21:38.779Z,100818.50
2019-04-06T09:24:08.841Z,100808.82
2019-04-06T09:26:39.031Z,100806.45
2019-04-06T09:29:10.039Z,100808.20
2019-04-06T09:31:40.538Z,100798.59
2019-04-06T09:34:11.006Z,100793.36
2019-04-06T09:36:42.490Z,100799.00
2019-04-06T09:39:12.811Z,100793.34
2019-04-06T09:41:43.686Z,100792.95
2019-04-06T09:44:21.597Z,100795.52
2019-04-06T09:47:05.486Z,100778.59
2019-04-06T09:49:56.421Z,100790.65
2019-04-06T09:52:31.146Z,100789.08
2019-04-06T09:55:08.472Z,100784.03
2019-04-06T09:57:46.166Z,100784.41
2019-04-06T10:00:33.601Z,100790.25
2019-04-06T10:03:09.002Z,100777.23
2019-04-06T10:05:57.465Z,100769.45
2019-04-06T10:08:29.365Z,100768.66
2019-04-06T10:11:18.056Z,100767.55
2019-04-06T10:13:59.683Z,100756.21
2019-04-06T10:16:43.966Z,100765.59
2019-04-06T10:19:32.476Z,100765.52
2019-04-06T10:22:08.628Z,100751.72
2019-04-06T10:24:52.578Z,100763.07
2019-04-06T10:27:24.684Z,100755.74
2019-04-06T10:29:59.408Z,100744.48
2019-04-06T10:32:35.205Z,100743.88
2019-04-06T10:35:22.552Z,100747.58
2019-04-06T10:38:03.715Z,100737.95
2019-04-06T10:40:38.642Z,100750.27
2019-04-06T10:43:13.679Z,100742.80
2019-04-06T10:45:51.839Z,100749.66
2019-04-06T10:48:26.929Z,100744.94
2019-04-06T10:51:13.639Z,100742.63
2019-04-06T10:53:51.996Z,100743.45
2019-04-06T10:56:36.474Z,100738.51
2019-04-06T10:59:26.671Z,100744.01
2019-04-06T11:01:58.908Z,100730.44
2019-04-06T11:04:37.164Z,100750.16
2019-04-06T11:07:14.750Z,100734.63
2019-04-06T11:09:46.486Z,100740.86
2019-04-06T11:12:31.890Z,100733.70
2019-04-06T11:15:04.256Z,100729.52
2019-04-06T11:17:48.384Z,100721.39
2019-04-06T11:20:23.224Z,100723.95
2019-04-06T11:23:05.582Z,100743.92
2019-04-06T11:25:43.537Z,100733.05
2019-04-06T11:28:16.511Z,100722.33
2019-04-06T11:30:48.424Z,100725.86
2019-04-06T11:33:23.270Z,100720.20
2019-04-06T11:36:10.760Z,100724.61
2019-04-06T11:38:42.675Z,100710.73
2019-04-06T11:41:29.947Z,100723.22
2019-04-06T11:44:14.129Z,100726.60
2019-04-06T11:46:52.775Z,100730.42
2019-04-06T11:49:24.773Z,100720.73
2019-04-06T11:52:00.554Z,100720.49
2019-04-06T11:54:48.898Z,100699.56
2019-04-06T11:57:37.525Z,100701.63
2019-04-06T12:00:27.180Z,100694.52
2019-04-06T12:03:01.196Z,100694.75
2019-04-06T12:05:36.038Z,100704.94
2019-04-06T12:08:11.373Z,100690.38
2019-04-06T12:10:58.569Z,100688.75
2019-04-06T12:13:36.452Z,100677.62
2019-04-06T12:16:24.476Z,100682.47
2019-04-06T12:18:56.571Z,100689.91
2019-04-06T12:21:31.423Z,100677.87
2019-04-06T12:24:03.287Z,100689.38
2019-04-06T12:26:51.738Z,100664.81
2019-04-06T12:29:23.861Z,100670.39
2019-04-06T12:32:02.146Z,100676.06
2019-04-06T12:34:37.135Z,100674.99
2019-04-06T12:37:21.603Z,100662.05
2019-04-06T12:39:54.653Z,100656.98
2019-04-06T12:42:41.929Z,100656.12
2019-04-06T12:45:23.210Z,100658.16
2019-04-06T12:47:58.835Z,100656.45
2019-04-06T12:50:30.758Z,100647.06
2019-04-06T12:53:18.633Z,100663.48
2019-04-06T12:55:53.117Z,100646.66
2019-04-06T12:58:34.044Z,100640.09
2019-04-06T13:01:22.346Z,100639.16
2019-04-06T13:04:10.896Z,100637.66
2019-04-06T13:06:54.915Z,100660.20
2019-04-06T13:09:35.987Z,100656.92
2019-04-06T13:12:24.130Z,100653.83
2019-04-06T13:14:59.448Z,100646.41
2019-04-06T13:17:48.028Z,100643.00
2019-04-06T13:20:20.203Z,100649.80
2019-04-06T13:23:08.678Z,100639.45
2019-04-06T13:25:40.594Z,100632.44
2019-04-06T13:28:15.774Z,100633.48
2019-04-06T13:31:03.017Z,100639.64
2019-04-06T13:33:45.795Z,100634.48
2019-04-06T13:36:17.716Z,100625.34
2019-04-06T13:38:49.987Z,100632.79
2019-04-06T13:41:22.198Z,100633.85
2019-04-06T13:43:55.652Z,100629.11
2019-04-06T13:46:33.495Z,100616.93
2019-04-06T13:49:21.140Z,100648.16
2019-04-06T13:52:09.428Z,100631.89
2019-04-06T13:54:50.770Z,100628.04
2019-04-06T13:57:39.264Z,100627.48
2019-04-06T14:00:14.637Z,100634.04
2019-04-06T14:02:46.669Z,100655.59
2019-04-06T14:05:27.435Z,100643.11
2019-04-06T14:08:15.704Z,100647.10
2019-04-06T14:10:56.400Z,100635.95
2019-04-06T14:13:28.812Z,100651.98
2019-04-06T14:16:01.002Z,100627.69
2019-04-06T14:18:48.192Z,100632.43
2019-04-06T14:21:36.673Z,100622.31
2019-04-06T14:24:08.755Z,100616.52
2019-04-06T14:26:46.542Z,100628.11
2019-04-06T14:29:30.767Z,100630.59
2019-04-06T14:32:19.028Z,100628.98
2019-04-06T14:34:57.060Z,100631.42
2019-04-06T14:37:39.353Z,100634.99
2019-04-06T14:40:30.261Z,100630.72
2019-04-06T14:43:18.950Z,100626.17
2019-04-06T14:45:56.822Z,100629.57
2019-04-06T14:48:31.649Z,100622.21
2019-04-06T14:51:12.695Z,100627.19
2019-04-06T14:54:00.904Z,100617.94
2019-04-06T14:56:33.484Z,100616.22
2019-04-06T14:59:21.928Z,100619.00
2019-04-06T15:01:58.262Z,100628.68
2019-04-06T15:04:29.019Z,100615.08
2019-04-06T15:07:11.114Z,100618.17
2019-04-06T15:09:50.985Z,100617.08
2019-04-06T15:12:23.714Z,100625.75
2019-04-06T15:15:08.053Z,100620.14
2019-04-06T15:17:40.157Z,100616.28
2019-04-06T15:20:24.857Z,100611.85
2019-04-06T15:22:57.303Z,100617.08
2019-04-06T15:25:38.270Z,100618.22
2019-04-06T15:28:25.246Z,100619.59
2019-04-06T15:31:06.646Z,100610.56
2019-04-06T15:33:55.222Z,100611.19
2019-04-06T15:36:43.787Z,100613.56
2019-04-06T15:39:30.796Z,100608.58
2019-04-06T15:42:02.719Z,100613.42
2019-04-06T15:44:51.017Z,100600.48
2019-04-06T15:47:25.751Z,100609.67
2019-04-06T15:49:57.915Z,100612.87
2019-04-06T15:52:46.806Z,100604.18
2019-04-06T15:55:30.918Z,100598.67
2019-04-06T15:58:02.972Z,100605.79
2019-04-06T16:00:50.652Z,100613.97
2019-04-06T16:03:39.461Z,100597.45
2019-04-06T16:06:11.455Z,100601.52
2019-04-06T16:08:59.736Z,100601.84
2019-04-06T16:11:34.634Z,100603.17
2019-04-06T16:14:22.763Z,100606.28
2019-04-06T16:16:54.866Z,100605.03
2019-04-06T16:19:36.200Z,100605.09
2019-04-06T16:22:26.623Z,100605.27
2019-04-06T16:24:58.849Z,100609.33
2019-04-06T16:27:39.923Z,100614.22
2019-04-06T16:30:15.542Z,100616.53
2019-04-06T16:32:47.681Z,100616.60
2019-04-06T16:35:35.168Z,100617.97
2019-04-06T16:38:07.738Z,100617.69
2019-04-06T16:40:39.747Z,100638.02
2019-04-06T16:43:18.049Z,100628.18
2019-04-06T16:45:59.068Z,100628.17
2019-04-06T16:48:36.972Z,100622.56
2019-04-06T16:51:27.216Z,100628.60
2019-04-06T16:54:14.607Z,100635.70
2019-04-06T16:56:47.531Z,100636.80
2019-04-06T16:59:22.457Z,100624.98
2019-04-06T17:02:21.546Z,100637.84
2019-04-06T17:04:44.304Z,100634.94
2019-04-06T17:07:31.253Z,100635.66
2019-04-06T17:10:09.249Z,100636.30
2019-04-06T17:12:56.475Z,100638.38
2019-04-06T17:15:43.564Z,100646.95
2019-04-06T17:18:21.239Z,100646.58
2019-04-06T17:20:54.398Z,100647.79
2019-04-06T17:23:32.129Z,100651.13
2019-04-06T17:26:04.095Z,100648.84
2019-04-06T17:28:42.209Z,100652.77
2019-04-06T17:31:13.970Z,100650.70
2019-04-06T17:33:55.569Z,100651.03
2019-04-06T17:36:28.735Z,100649.00
2019-04-06T17:39:09.635Z,100655.84
2019-04-06T17:41:42.220Z,100650.56
2019-04-06T17:44:14.478Z,100653.61
2019-04-06T17:47:03.865Z,100658.73
2019-04-06T17:49:48.467Z,100661.83
2019-04-06T17:52:32.573Z,100660.72
2019-04-06T17:55:07.587Z,100662.38
2019-04-06T17:57:57.520Z,100654.71
2019-04-06T18:00:41.661Z,100658.38
2019-04-06T18:03:21.018Z,100661.17
2019-04-06T18:06:01.827Z,100664.52
2019-04-06T18:08:37.011Z,100669.47
2019-04-06T18:11:08.965Z,100669.16
2019-04-06T18:13:41.213Z,100662.91
2019-04-06T18:16:11.892Z,100663.34
2019-04-06T18:18:42.153Z,100664.00
2019-04-06T18:21:13.159Z,100664.06
2019-04-06T18:23:43.812Z,100677.86
2019-04-06T18:26:15.810Z,100669.67
2019-04-06T18:28:48.335Z,100668.52
2019-04-06T18:31:21.465Z,100673.84
2019-04-06T18:33:53.587Z,100671.34
2019-04-06T18:36:27.640Z,100668.41
2019-04-06T18:39:00.951Z,100675.26
2019-04-06T18:41:34.644Z,100667.52
2019-04-06T18:44:07.145Z,100670.13
2019-04-06T18:46:39.358Z,100666.45
2019-04-06T18:49:10.957Z,100663.17
2019-04-06T18:51:43.367Z,100672.20
2019-04-06T18:54:14.885Z,100666.33
2019-04-06T18:56:47.096Z,100664.05
2019-04-06T18:59:19.443Z,100660.64
2019-04-06T19:01:51.072Z,100663.77
2019-04-06T19:04:22.858Z,100673.55
2019-04-06T19:06:54.571Z,100670.50
2019-04-06T19:09:26.799Z,100662.48
2019-04-06T19:11:58.601Z,100661.47
2019-04-06T19:14:30.593Z,100667.01
2019-04-06T19:17:02.455Z,100658.44
2019-04-06T19:19:35.278Z,100663.87
2019-04-06T19:22:07.158Z,100663.33
2019-04-06T19:24:39.595Z,100656.12
2019-04-06T19:27:15.232Z,100662.27
2019-04-06T19:29:47.439Z,100657.34
2019-04-06T19:32:19.687Z,100658.94
2019-04-06T19:34:51.618Z,100655.69
2019-04-06T19:37:23.815Z,100654.17
2019-04-06T19:39:55.823Z,100652.94
2019-04-06T19:42:27.484Z,100653.73
2019-04-06T19:44:59.218Z,100653.30
2019-04-06T19:47:32.364Z,100659.03
2019-04-06T19:50:04.859Z,100649.46
2019-04-06T19:52:36.389Z,100644.03
2019-04-06T19:55:10.104Z,100646.98
2019-04-06T19:57:41.840Z,100639.57
2019-04-06T20:00:15.709Z,100639.83
2019-04-06T20:02:47.652Z,100643.08
2019-04-06T20:05:19.638Z,100635.42
2019-04-06T20:07:51.515Z,100639.63
2019-04-06T20:10:23.102Z,100637.23
2019-04-06T20:12:55.253Z,100640.64
2019-04-06T20:15:27.096Z,100634.50
2019-04-06T20:17:59.112Z,100632.38
2019-04-06T20:20:31.524Z,100637.14
2019-04-06T20:23:03.368Z,100633.42
2019-04-06T20:25:35.107Z,100631.41
2019-04-06T20:28:06.807Z,100629.62
2019-04-06T20:30:38.555Z,100630.84
2019-04-06T20:33:11.027Z,100629.08
2019-04-06T20:35:43.031Z,100635.50
2019-04-06T20:38:15.120Z,100633.70
2019-04-06T20:40:47.113Z,100627.09
2019-04-06T20:43:19.732Z,100619.89
2019-04-06T20:45:51.253Z,100619.42
2019-04-06T20:48:23.099Z,100620.78
2019-04-06T20:50:55.231Z,100618.58
2019-04-06T20:53:26.642Z,100616.52
2019-04-06T20:55:58.492Z,100623.11
2019-04-06T20:58:31.288Z,100621.08
2019-04-06T21:01:02.971Z,100621.02
2019-04-06T21:03:34.869Z,100621.32
2019-04-06T21:06:06.504Z,100624.23
2019-04-06T21:08:39.003Z,100625.08
2019-04-06T21:11:10.837Z,100620.67
2019-04-06T21:13:42.584Z,100623.76
2019-04-06T21:16:15.291Z,100623.41
2019-04-06T21:18:47.011Z,100619.65
2019-04-06T21:21:18.951Z,100623.48
2019-04-06T21:23:51.099Z,100631.34
2019-04-06T21:26:23.654Z,100620.78
2019-04-06T21:28:55.685Z,100625.71
2019-04-06T21:31:27.422Z,100620.93
2019-04-06T21:34:09.766Z,100623.86
2019-04-06T21:36:33.409Z,100619.46
2019-04-06T21:39:07.069Z,100614.77
2019-04-06T21:41:39.609Z,100609.55
2019-04-06T21:44:11.321Z,100606.38
2019-04-06T21:46:43.453Z,100602.61
2019-04-06T21:49:15.551Z,100600.02
2019-04-06T21:51:49.365Z,100597.59
2019-04-06T21:54:21.272Z,100600.08
2019-04-06T21:56:53.454Z,100600.88
2019-04-06T21:59:25.731Z,100598.35
2019-04-06T22:01:58.071Z,100597.39
2019-04-06T22:04:30.368Z,100592.02
2019-04-06T22:07:02.315Z,100583.55
2019-04-06T22:09:34.126Z,100585.77
2019-04-06T22:12:06.162Z,100581.76
2019-04-06T22:14:38.513Z,100576.16
2019-04-06T22:17:10.885Z,100578.02
2019-04-06T22:19:42.598Z,100575.09
2019-04-06T22:22:14.949Z,100570.69
2019-04-06T22:24:47.258Z,100572.01
2019-04-06T22:27:18.978Z,100572.06
2019-04-06T22:29:51.135Z,100565.52
2019-04-06T22:32:24.627Z,100560.33
2019-04-06T22:34:57.911Z,100562.86
2019-04-06T22:37:30.191Z,100560.36
2019-04-06T22:40:02.406Z,100557.66
2019-04-06T22:42:34.313Z,100554.69
2019-04-06T22:45:07.164Z,100554.99
2019-04-06T22:47:39.355Z,100553.62
2019-04-06T22:50:12.022Z,100554.41
2019-04-06T22:52:45.228Z,100558.65
2019-04-06T22:55:17.713Z,100546.94
2019-04-06T22:57:50.457Z,100546.60
2019-04-06T23:00:30.502Z,100551.05
2019-04-06T23:03:03.988Z,100550.26
2019-04-06T23:05:37.418Z,100549.41
2019-04-06T23:08:09.820Z,100545.93
2019-04-06T23:10:42.147Z,100557.53
2019-04-06T23:13:14.968Z,100554.05
2019-04-06T23:15:47.997Z,100548.34
2019-04-06T23:18:20.899Z,100546.57
2019-04-06T23:20:52.906Z,100549.54
2019-04-06T23:23:24.681Z,100543.97
2019-04-06T23:25:56.596Z,100547.94
2019-04-06T23:28:28.483Z,100543.58
2019-04-06T23:31:00.414Z,100545.80
2019-04-06T23:33:32.258Z,100545.75
2019-04-06T23:36:04.043Z,100536.98
2019-04-06T23:38:36.006Z,100542.83
2019-04-06T23:41:07.873Z,100534.54
2019-04-06T23:43:39.661Z,100539.86
2019-04-06T23:46:11.528Z,100536.37
2019-04-06T23:48:43.186Z,100544.72
2019-04-06T23:51:16.455Z,100547.76
2019-04-06T23:53:48.979Z,100549.63
2019-04-06T23:56:20.700Z,100545.37
2019-04-06T23:58:53.512Z,100550.19
